VHHH/HKG METAR and TAF weather

Enter ICAO airport designator
Station Type Date Time Source
VHHH METAR 2020/09/18 20:30 UTC NOAA

VHHH 182030Z 08008KT 060V130 9999 FEW014 SCT025 27/25 Q1010 NOSIG


Station Type Date Time Source
VHHH Decoded METAR 2020/09/18 20:30 UTC NOAA

Hong Kong Inter-National Airport, Hong Kong (VHHH) 22-20N 114-11E 24M
Sep 18, 2020 - 04:30 PM EDT / 2020.09.18 2030 UTC
Wind: from the E (080 degrees) at 9 MPH (8 KT) (direction variable):0
Visibility: greater than 7 mile(s):0
Sky conditions: partly cloudy
Temperature: 80 F (27 C)
Dew Point: 77 F (25 C)
Relative Humidity: 88%
Pressure (altimeter): 29.83 in. Hg (1010 hPa)
ob: VHHH 182030Z 08008KT 060V130 9999 FEW014 SCT025 27/25 Q1010 NOSIG
cycle: 20

Station Type Date Time Source
VHHH TAF 2020/09/18 18:38 UTC NOAA

TAF VHHH 181700Z 1818/1924 10015KT 9999 FEW015 SCT025 TX31/1906Z TN27/1822Z TN27/1922Z
TEMPO 1818/1824 14025G35KT 3000 -TSRA SHRA FEW010CB SCT020
TEMPO 1900/1906 4000 SHRA FEW010CB SCT025

Example: see airport list